createdAt,value
2022-11-21T00:01:56.910Z,1.10
2022-11-21T00:04:27.683Z,1.10
2022-11-21T00:06:58.696Z,0.80
2022-11-21T00:09:29.688Z,1.30
2022-11-21T00:12:00.032Z,0.90
2022-11-21T00:14:30.574Z,1.20
2022-11-21T00:17:01.201Z,0.90
2022-11-21T00:19:31.873Z,1.00
2022-11-21T00:22:02.344Z,1.00
2022-11-21T00:24:32.825Z,1.20
2022-11-21T00:27:03.485Z,1.10
2022-11-21T00:29:33.988Z,1.00
2022-11-21T00:32:04.474Z,1.00
2022-11-21T00:34:34.956Z,1.20
2022-11-21T00:37:05.430Z,1.30
2022-11-21T00:39:35.890Z,1.50
2022-11-21T00:42:06.699Z,1.10
2022-11-21T00:44:37.291Z,1.50
2022-11-21T00:47:07.849Z,1.10
2022-11-21T00:49:38.333Z,1.20
2022-11-21T00:52:08.742Z,0.90
2022-11-21T00:54:39.130Z,1.40
2022-11-21T00:57:09.510Z,1.10
2022-11-21T00:59:39.959Z,1.20
2022-11-21T01:02:10.721Z,1.60
2022-11-21T01:04:41.208Z,1.80
2022-11-21T01:07:11.692Z,1.30
2022-11-21T01:09:42.181Z,1.00
2022-11-21T01:12:12.808Z,1.40
2022-11-21T01:14:43.168Z,1.50
2022-11-21T01:17:16.435Z,1.30
2022-11-21T01:19:46.895Z,1.40
2022-11-21T01:22:17.451Z,1.40
2022-11-21T01:24:47.946Z,1.10
2022-11-21T01:27:18.401Z,1.50
2022-11-21T01:29:48.969Z,1.60
2022-11-21T01:32:19.374Z,1.10
2022-11-21T01:34:49.862Z,1.00
2022-11-21T01:37:20.267Z,1.10
2022-11-21T01:39:50.720Z,0.80
2022-11-21T01:42:21.194Z,1.80
2022-11-21T01:44:54.487Z,1.90
2022-11-21T01:47:24.928Z,1.30
2022-11-21T01:49:56.669Z,1.90
2022-11-21T01:52:29.225Z,1.80
2022-11-21T01:55:01.610Z,2.20
2022-11-21T01:57:36.181Z,1.80
2022-11-21T02:00:10.293Z,1.60
2022-11-21T02:02:42.801Z,1.40
2022-11-21T02:05:16.736Z,1.50
2022-11-21T02:07:48.551Z,1.40
2022-11-21T02:10:19.712Z,1.70
2022-11-21T02:12:52.456Z,1.70
2022-11-21T02:15:24.344Z,1.40
2022-11-21T02:17:54.961Z,1.50
2022-11-21T02:20:27.428Z,1.60
2022-11-21T02:23:03.369Z,1.40
2022-11-21T02:25:34.803Z,1.60
2022-11-21T02:28:06.645Z,1.80
2022-11-21T02:30:39.347Z,1.40
2022-11-21T02:33:10.371Z,1.80
2022-11-21T02:35:41.067Z,2.30
2022-11-21T02:38:17.917Z,1.30
2022-11-21T02:40:51.826Z,1.90
2022-11-21T02:43:25.257Z,2.10
2022-11-21T02:45:56.358Z,2.00
2022-11-21T02:48:26.788Z,1.70
2022-11-21T02:50:57.273Z,1.70
2022-11-21T02:53:27.717Z,1.80
2022-11-21T02:55:58.203Z,1.90
2022-11-21T02:58:28.625Z,1.90
2022-11-21T03:00:59.308Z,1.90
2022-11-21T03:03:29.843Z,2.30
2022-11-21T03:06:00.344Z,1.90
2022-11-21T03:08:30.959Z,3.40
2022-11-21T03:11:01.410Z,1.70
2022-11-21T03:13:31.738Z,2.00
2022-11-21T03:16:03.077Z,2.10
2022-11-21T03:18:33.476Z,2.10
2022-11-21T03:21:03.956Z,2.10
2022-11-21T03:23:34.582Z,2.20
2022-11-21T03:26:05.296Z,1.90
2022-11-21T03:28:35.766Z,2.00
2022-11-21T03:31:06.544Z,2.50
2022-11-21T03:33:37.159Z,1.80
2022-11-21T03:36:08.096Z,1.80
2022-11-21T03:38:38.478Z,2.60
2022-11-21T03:41:29.268Z,2.70
2022-11-21T03:44:00.360Z,1.90
2022-11-21T03:46:31.388Z,2.10
2022-11-21T03:49:01.942Z,2.10
2022-11-21T03:51:32.435Z,2.50
2022-11-21T03:54:02.941Z,2.50
2022-11-21T03:56:33.553Z,2.50
2022-11-21T03:59:04.504Z,2.20
2022-11-21T04:01:38.063Z,2.30
2022-11-21T04:04:08.607Z,2.20
2022-11-21T04:06:39.082Z,1.80
2022-11-21T04:09:09.811Z,2.70
2022-11-21T04:11:40.187Z,1.90
2022-11-21T04:14:10.777Z,1.70
2022-11-21T04:16:41.176Z,1.90
2022-11-21T04:19:11.644Z,2.40
2022-11-21T04:21:42.003Z,2.50
2022-11-21T04:24:12.922Z,2.80
2022-11-21T04:26:43.312Z,2.50
2022-11-21T04:29:13.696Z,3.00
2022-11-21T04:31:44.152Z,2.20
2022-11-21T04:34:14.722Z,2.90
2022-11-21T04:36:45.213Z,2.90
2022-11-21T04:39:15.656Z,2.60
2022-11-21T04:41:46.046Z,2.30
2022-11-21T04:44:16.385Z,2.70
2022-11-21T04:46:46.888Z,2.10
2022-11-21T04:49:17.536Z,2.30
2022-11-21T04:51:47.958Z,2.10
2022-11-21T04:54:18.423Z,2.50
2022-11-21T04:56:48.818Z,2.60
2022-11-21T04:59:19.202Z,2.70
2022-11-21T05:01:49.702Z,3.30
2022-11-21T05:04:20.164Z,2.90
2022-11-21T05:06:50.627Z,2.30
2022-11-21T05:09:21.153Z,2.40
2022-11-21T05:12:09.336Z,1.90
2022-11-21T05:14:39.676Z,3.20
2022-11-21T05:25:05.548Z,3.00
2022-11-21T05:27:35.992Z,3.60
2022-11-21T05:30:08.096Z,3.00
2022-11-21T05:32:38.815Z,3.30
2022-11-21T05:35:10.331Z,3.00
2022-11-21T05:37:40.785Z,3.60
2022-11-21T05:40:13.044Z,2.50
2022-11-21T05:43:01.865Z,2.50
2022-11-21T05:45:32.276Z,3.90
2022-11-21T05:48:07.624Z,3.70
2022-11-21T05:50:38.730Z,3.70
2022-11-21T05:53:09.451Z,2.80
2022-11-21T05:55:39.878Z,3.50
2022-11-21T05:58:10.972Z,3.10
2022-11-21T06:00:41.448Z,3.10
2022-11-21T06:03:27.875Z,3.10
2022-11-21T06:06:06.411Z,3.30
2022-11-21T06:08:38.326Z,3.10
2022-11-21T06:11:09.866Z,2.80
2022-11-21T06:13:40.726Z,2.80
2022-11-21T06:16:13.079Z,3.30
2022-11-21T06:18:45.794Z,3.40
2022-11-21T06:21:17.970Z,3.40
2022-11-21T06:23:48.770Z,2.70
2022-11-21T06:26:21.543Z,2.90
2022-11-21T06:28:52.489Z,3.20
2022-11-21T06:31:24.700Z,3.40
2022-11-21T06:33:56.474Z,3.50
2022-11-21T06:36:27.061Z,2.60
2022-11-21T06:38:57.844Z,3.00
2022-11-21T06:41:30.883Z,3.50
2022-11-21T06:46:32.083Z,2.70
2022-11-21T06:49:02.508Z,3.40
2022-11-21T06:51:32.936Z,4.00
2022-11-21T06:54:03.410Z,3.50
2022-11-21T06:56:34.218Z,4.30
2022-11-21T06:59:04.898Z,3.60
2022-11-21T07:01:35.389Z,3.00
2022-11-21T07:04:06.207Z,2.70
2022-11-21T07:06:38.298Z,3.90
2022-11-21T07:09:32.085Z,2.10
2022-11-21T07:12:19.496Z,3.40
2022-11-21T07:14:49.958Z,3.40
2022-11-21T07:17:20.280Z,3.10
2022-11-21T07:19:50.634Z,3.30
2022-11-21T07:22:21.152Z,4.70
2022-11-21T07:24:51.564Z,2.90
2022-11-21T07:27:21.936Z,2.90
2022-11-21T07:29:52.786Z,2.90
2022-11-21T07:32:23.192Z,3.20
2022-11-21T07:34:53.759Z,2.90
2022-11-21T07:37:24.255Z,3.40
2022-11-21T07:39:54.700Z,3.30
2022-11-21T07:42:25.069Z,3.20
2022-11-21T07:44:55.551Z,3.20
2022-11-21T07:47:25.931Z,2.60
2022-11-21T07:49:56.366Z,4.00
2022-11-21T07:52:27.147Z,2.60
2022-11-21T07:54:57.632Z,3.30
2022-11-21T07:57:28.070Z,3.00
2022-11-21T07:59:58.807Z,3.60
2022-11-21T08:02:30.154Z,3.10
2022-11-21T08:05:01.022Z,2.70
2022-11-21T08:07:31.449Z,5.00
2022-11-21T08:10:01.911Z,3.70
2022-11-21T08:12:34.538Z,2.30
2022-11-21T08:15:06.926Z,3.30
2022-11-21T08:17:38.552Z,4.20
2022-11-21T08:20:11.686Z,3.50
2022-11-21T08:22:42.810Z,3.70
2022-11-21T08:25:13.908Z,2.60
2022-11-21T08:27:44.343Z,2.50
2022-11-21T08:30:16.389Z,3.20
2022-11-21T08:32:46.877Z,3.30
2022-11-21T08:35:17.451Z,2.70
2022-11-21T08:37:47.964Z,3.00
2022-11-21T08:40:18.654Z,2.70
2022-11-21T08:42:48.957Z,2.10
2022-11-21T08:45:19.524Z,2.90
2022-11-21T08:47:49.931Z,2.30
2022-11-21T08:50:20.555Z,2.80
2022-11-21T08:52:50.955Z,3.80
2022-11-21T08:55:23.040Z,2.60
2022-11-21T08:57:53.380Z,2.60
2022-11-21T09:00:24.465Z,2.90
2022-11-21T09:02:54.873Z,2.70
2022-11-21T09:05:25.628Z,2.10
2022-11-21T09:08:00.080Z,2.30
2022-11-21T09:10:30.942Z,2.90
2022-11-21T09:13:02.387Z,1.90
2022-11-21T09:15:50.656Z,2.80
2022-11-21T09:18:21.153Z,2.20
2022-11-21T09:20:51.698Z,2.30
2022-11-21T09:23:22.161Z,2.40
2022-11-21T09:25:52.646Z,2.90
2022-11-21T09:28:23.140Z,2.20
2022-11-21T09:30:53.651Z,2.80
2022-11-21T09:33:24.168Z,3.00
2022-11-21T09:35:55.401Z,2.60
2022-11-21T09:38:26.671Z,2.60
2022-11-21T09:41:21.581Z,2.10
2022-11-21T09:43:58.940Z,2.00
2022-11-21T09:46:35.906Z,2.40
2022-11-21T09:49:08.142Z,2.50
2022-11-21T09:51:40.062Z,2.00
2022-11-21T09:54:20.362Z,2.30
2022-11-21T09:56:51.869Z,2.10
2022-11-21T09:59:35.196Z,2.60
2022-11-21T10:02:09.512Z,2.80
2022-11-21T10:04:39.952Z,2.20
2022-11-21T10:07:14.233Z,2.30
2022-11-21T10:09:56.355Z,2.00
2022-11-21T10:12:39.981Z,1.90
2022-11-21T10:15:31.823Z,2.20
2022-11-21T10:18:20.894Z,1.80
2022-11-21T10:20:58.567Z,1.70
2022-11-21T10:23:50.260Z,1.90
2022-11-21T10:26:28.219Z,2.30
2022-11-21T10:29:02.000Z,2.10
2022-11-21T10:31:37.254Z,1.80
2022-11-21T10:34:13.592Z,1.60
2022-11-21T10:36:46.794Z,1.40
2022-11-21T10:39:21.238Z,1.60
2022-11-21T10:41:54.707Z,1.60
2022-11-21T10:44:46.334Z,1.70
2022-11-21T10:47:27.427Z,1.50
2022-11-21T10:50:11.846Z,1.10
2022-11-21T10:52:46.427Z,1.10
2022-11-21T10:55:17.883Z,1.10
2022-11-21T10:57:49.928Z,1.20
2022-11-21T11:00:27.289Z,1.10
2022-11-21T11:03:16.645Z,1.40
2022-11-21T11:05:58.419Z,1.20
2022-11-21T11:08:31.801Z,1.00
2022-11-21T11:11:07.602Z,1.10
2022-11-21T11:13:56.271Z,1.40
2022-11-21T11:16:27.502Z,1.40
2022-11-21T11:19:03.367Z,1.30
2022-11-21T11:21:45.093Z,1.00
2022-11-21T11:24:27.196Z,1.00
2022-11-21T11:27:03.034Z,2.30
2022-11-21T11:29:35.273Z,1.30
2022-11-21T11:32:21.247Z,1.90
2022-11-21T11:34:58.597Z,1.70
2022-11-21T11:37:40.029Z,1.50
2022-11-21T11:40:22.980Z,1.30
2022-11-21T11:43:31.378Z,1.80
2022-11-21T11:46:47.216Z,1.30
2022-11-21T11:49:22.009Z,1.30
2022-11-21T11:51:55.472Z,1.40
2022-11-21T11:54:27.939Z,1.40
2022-11-21T11:56:59.428Z,1.10
2022-11-21T11:59:32.522Z,1.70
2022-11-21T12:02:11.597Z,1.20
2022-11-21T12:04:48.064Z,1.40
2022-11-21T12:10:18.350Z,1.60
2022-11-21T12:12:53.624Z,1.70
2022-11-21T12:15:44.195Z,1.50
2022-11-21T12:18:24.999Z,1.30
2022-11-21T12:20:59.232Z,1.20
2022-11-21T12:23:32.107Z,2.00
2022-11-21T12:26:15.788Z,1.10
2022-11-21T12:28:56.251Z,1.20
2022-11-21T12:31:31.589Z,1.30
2022-11-21T12:34:10.580Z,1.30
2022-11-21T12:36:47.166Z,1.10
2022-11-21T12:39:53.277Z,2.20
2022-11-21T12:42:52.400Z,1.20
2022-11-21T12:45:34.822Z,1.20
2022-11-21T12:48:37.213Z,1.90
2022-11-21T12:51:51.608Z,1.20
2022-11-21T12:54:51.672Z,2.00
2022-11-21T12:57:24.856Z,0.90
2022-11-21T13:00:02.187Z,1.60
2022-11-21T13:02:39.151Z,1.90
2022-11-21T13:05:13.493Z,1.40
2022-11-21T13:07:44.376Z,1.80
2022-11-21T13:10:17.442Z,1.10
2022-11-21T13:15:25.750Z,1.40
2022-11-21T13:17:58.962Z,1.70
2022-11-21T13:20:33.795Z,1.40
2022-11-21T13:23:07.087Z,1.30
2022-11-21T13:25:47.673Z,1.50
2022-11-21T13:28:34.943Z,1.20
2022-11-21T13:31:22.055Z,1.30
2022-11-21T13:33:54.426Z,1.40
2022-11-21T13:36:44.060Z,1.30
2022-11-21T13:39:35.034Z,1.70
2022-11-21T13:42:30.453Z,1.40
2022-11-21T13:45:24.262Z,1.20
2022-11-21T13:48:05.247Z,1.40
2022-11-21T13:51:08.062Z,1.20
2022-11-21T13:54:07.671Z,1.30
2022-11-21T13:56:48.323Z,1.60
2022-11-21T13:59:41.749Z,1.50
2022-11-21T14:05:15.300Z,1.80
2022-11-21T14:07:47.746Z,2.00
2022-11-21T14:10:34.363Z,1.40
2022-11-21T14:20:52.387Z,1.40
2022-11-21T14:23:23.990Z,1.30
2022-11-21T14:25:57.005Z,1.50
2022-11-21T14:31:00.784Z,1.30
2022-11-21T14:33:33.326Z,2.00
2022-11-21T14:36:06.312Z,2.00
2022-11-21T14:41:27.976Z,2.00
2022-11-21T14:44:18.033Z,1.80
2022-11-21T14:46:49.177Z,2.70
2022-11-21T14:49:26.264Z,2.30
2022-11-21T14:52:09.703Z,2.40
2022-11-21T14:55:13.353Z,1.10
2022-11-21T14:57:43.161Z,2.20
2022-11-21T15:00:43.382Z,1.30
2022-11-21T15:03:20.936Z,2.30
2022-11-21T15:06:05.317Z,1.70
2022-11-21T15:11:33.527Z,1.80
2022-11-21T15:14:15.543Z,2.50
2022-11-21T15:16:47.601Z,4.30
2022-11-21T15:19:22.690Z,3.30
2022-11-21T15:21:53.732Z,3.30
2022-11-21T15:24:33.089Z,2.50
2022-11-21T15:27:23.667Z,1.80
2022-11-21T15:30:16.802Z,2.20
2022-11-21T15:35:58.148Z,2.80
2022-11-21T15:38:41.708Z,2.60
2022-11-21T15:41:41.141Z,2.40
2022-11-21T15:44:25.209Z,2.70
2022-11-21T15:46:55.729Z,4.00
2022-11-21T15:49:32.936Z,3.30
2022-11-21T15:52:09.839Z,3.70
2022-11-21T15:54:40.763Z,3.70
2022-11-21T15:57:16.492Z,3.30
2022-11-21T15:59:47.837Z,2.90
2022-11-21T16:02:18.362Z,3.40
2022-11-21T16:04:49.547Z,3.40
2022-11-21T16:07:20.131Z,3.00
2022-11-21T16:09:52.110Z,3.80
2022-11-21T16:12:22.553Z,6.20
2022-11-21T16:14:53.437Z,6.00
2022-11-21T16:17:23.905Z,7.70
2022-11-21T16:19:54.604Z,8.20
2022-11-21T16:22:25.253Z,9.40
2022-11-21T16:24:56.085Z,9.60
2022-11-21T16:27:26.662Z,8.10
2022-11-21T16:29:57.101Z,10.50
2022-11-21T16:32:29.146Z,9.40
2022-11-21T16:34:59.586Z,8.40
2022-11-21T16:37:29.973Z,8.30
2022-11-21T16:40:00.922Z,9.80
2022-11-21T16:42:31.320Z,7.90
2022-11-21T16:45:01.738Z,7.40
2022-11-21T16:47:32.155Z,9.00
2022-11-21T16:50:02.636Z,12.00
2022-11-21T16:52:35.689Z,9.20
2022-11-21T16:57:39.008Z,5.90
2022-11-21T17:00:12.042Z,5.70
2022-11-21T17:02:42.923Z,5.30
2022-11-21T17:05:13.588Z,4.90
2022-11-21T17:07:44.879Z,6.30
2022-11-21T17:10:15.454Z,5.90
2022-11-21T17:12:47.174Z,5.60
2022-11-21T17:15:17.847Z,5.60
2022-11-21T17:17:48.304Z,5.50
2022-11-21T17:20:18.689Z,5.50
2022-11-21T17:22:49.163Z,5.00
2022-11-21T17:25:19.560Z,4.90
2022-11-21T17:27:50.074Z,5.40
2022-11-21T17:30:21.342Z,5.10
2022-11-21T17:32:51.976Z,5.70
2022-11-21T17:35:22.642Z,6.30
2022-11-21T17:37:53.087Z,6.50
2022-11-21T17:40:23.511Z,6.10
2022-11-21T17:42:54.062Z,7.10
2022-11-21T17:45:24.531Z,6.50
2022-11-21T17:47:55.018Z,5.90
2022-11-21T17:50:25.531Z,7.70
2022-11-21T17:52:56.047Z,7.70
2022-11-21T17:55:26.588Z,6.30
2022-11-21T17:57:57.093Z,7.90
2022-11-21T18:00:27.547Z,6.40
2022-11-21T18:02:58.856Z,6.60
2022-11-21T18:05:29.234Z,6.50
2022-11-21T18:08:00.108Z,7.20
2022-11-21T18:10:43.436Z,7.10
2022-11-21T18:13:14.442Z,7.90
2022-11-21T18:15:44.970Z,7.30
2022-11-21T18:18:15.408Z,8.70
2022-11-21T18:20:45.840Z,9.60
2022-11-21T18:23:16.729Z,10.30
2022-11-21T18:25:47.177Z,12.70
2022-11-21T18:28:17.762Z,12.70
2022-11-21T18:30:48.762Z,9.80
2022-11-21T18:33:19.354Z,7.70
2022-11-21T18:35:50.185Z,7.50
2022-11-21T18:38:46.735Z,5.70
2022-11-21T18:41:13.848Z,6.50
2022-11-21T18:43:45.407Z,11.00
2022-11-21T18:46:16.507Z,11.50
2022-11-21T18:49:01.377Z,11.20
2022-11-21T18:51:33.836Z,7.00
2022-11-21T18:54:07.320Z,5.60
2022-11-21T18:56:38.714Z,8.00
2022-11-21T18:59:09.441Z,6.10
2022-11-21T19:01:40.552Z,6.60
2022-11-21T19:04:11.297Z,7.20
2022-11-21T19:06:42.150Z,14.40
2022-11-21T19:09:12.913Z,6.80
2022-11-21T19:11:43.389Z,5.40
2022-11-21T19:14:14.105Z,7.30
2022-11-21T19:16:44.674Z,5.70
2022-11-21T19:22:06.644Z,6.60
2022-11-21T19:24:37.317Z,6.00
2022-11-21T19:27:08.962Z,11.50
2022-11-21T19:29:41.760Z,5.80
2022-11-21T19:32:12.189Z,8.10
2022-11-21T19:34:42.676Z,7.90
2022-11-21T19:37:13.131Z,12.40
2022-11-21T19:39:43.743Z,6.10
2022-11-21T19:42:14.344Z,8.60
2022-11-21T19:44:45.057Z,9.50
2022-11-21T19:47:15.506Z,7.80
2022-11-21T19:49:46.040Z,9.40
2022-11-21T19:52:16.558Z,11.60
2022-11-21T19:54:47.159Z,6.00
2022-11-21T19:57:17.562Z,9.90
2022-11-21T19:59:48.205Z,5.50
2022-11-21T20:02:19.711Z,5.70
2022-11-21T20:04:50.279Z,9.60
2022-11-21T20:07:20.667Z,9.30
2022-11-21T20:09:51.198Z,8.30
2022-11-21T20:12:21.615Z,4.30
2022-11-21T20:14:53.614Z,3.30
2022-11-21T20:17:24.214Z,8.50
2022-11-21T20:19:54.550Z,9.70
2022-11-21T20:22:25.054Z,10.80
2022-11-21T20:24:55.976Z,8.00
2022-11-21T20:27:26.419Z,4.70
2022-11-21T20:29:57.143Z,4.40
2022-11-21T20:32:28.355Z,4.90
2022-11-21T20:34:58.695Z,4.60
2022-11-21T20:37:29.126Z,4.20
2022-11-21T20:39:59.644Z,4.20
2022-11-21T20:42:30.087Z,4.90
2022-11-21T20:47:50.839Z,3.20
2022-11-21T20:50:48.730Z,4.50
2022-11-21T20:56:03.422Z,3.50
2022-11-21T20:58:35.275Z,3.70
2022-11-21T21:01:06.601Z,3.20
2022-11-21T21:03:38.204Z,3.40
2022-11-21T21:06:10.163Z,3.10
2022-11-21T21:08:41.042Z,3.00
2022-11-21T21:11:36.936Z,2.50
2022-11-21T21:14:04.425Z,3.30
2022-11-21T21:16:35.200Z,3.10
2022-11-21T21:19:05.808Z,3.10
2022-11-21T21:21:36.266Z,3.60
2022-11-21T21:24:07.895Z,3.40
2022-11-21T21:26:42.689Z,4.10
2022-11-21T21:29:14.740Z,3.70
2022-11-21T21:31:50.414Z,4.10
2022-11-21T21:34:22.646Z,3.50
2022-11-21T21:36:53.703Z,4.40
2022-11-21T21:39:24.156Z,3.50
2022-11-21T21:41:54.479Z,4.00
2022-11-21T21:44:29.814Z,3.20
2022-11-21T21:47:03.312Z,3.70
2022-11-21T21:49:33.778Z,3.50
2022-11-21T21:52:04.209Z,4.10
2022-11-21T21:54:34.687Z,2.90
2022-11-21T21:57:05.066Z,4.40
2022-11-21T21:59:35.475Z,4.00
2022-11-21T22:02:06.516Z,3.60
2022-11-21T22:04:36.908Z,3.90
2022-11-21T22:07:08.714Z,4.40
2022-11-21T22:09:39.370Z,4.20
2022-11-21T22:12:10.012Z,4.30
2022-11-21T22:14:40.344Z,3.60
2022-11-21T22:17:10.716Z,3.80
2022-11-21T22:19:41.191Z,3.80
2022-11-21T22:22:11.654Z,3.90
2022-11-21T22:24:42.128Z,4.10
2022-11-21T22:27:12.757Z,4.80
2022-11-21T22:29:43.173Z,4.30
2022-11-21T22:32:19.313Z,4.10
2022-11-21T22:34:50.247Z,3.40
2022-11-21T22:37:20.802Z,3.40
2022-11-21T22:39:51.152Z,3.30
2022-11-21T22:42:21.542Z,3.60
2022-11-21T22:44:51.944Z,3.40
2022-11-21T22:47:22.479Z,2.90
2022-11-21T22:49:52.850Z,3.40
2022-11-21T22:52:23.266Z,2.80
2022-11-21T22:54:53.646Z,3.40
2022-11-21T22:57:24.117Z,3.20
2022-11-21T22:59:54.524Z,3.50
2022-11-21T23:02:25.006Z,3.80
2022-11-21T23:04:55.447Z,3.50
2022-11-21T23:07:25.916Z,3.80
2022-11-21T23:09:56.367Z,4.40
2022-11-21T23:12:27.289Z,4.60
2022-11-21T23:14:57.646Z,4.80
2022-11-21T23:17:27.992Z,4.90
2022-11-21T23:19:58.410Z,4.30
2022-11-21T23:22:28.838Z,4.00
2022-11-21T23:24:59.194Z,4.70
2022-11-21T23:27:29.581Z,4.70
2022-11-21T23:29:59.906Z,5.20
2022-11-21T23:32:30.416Z,4.70
2022-11-21T23:35:00.779Z,4.70
2022-11-21T23:37:31.179Z,5.00
2022-11-21T23:40:01.599Z,5.50
2022-11-21T23:42:31.978Z,5.40
2022-11-21T23:45:02.320Z,4.60
2022-11-21T23:47:32.742Z,4.60
2022-11-21T23:50:03.279Z,5.10
2022-11-21T23:52:34.064Z,5.00
2022-11-21T23:55:05.043Z,5.30
2022-11-21T23:57:35.624Z,4.50
